sensor_id;sensor_type;location;lat;lon;timestamp;temperature;humidity
40123;DHT22;25832;45.490;4.912;2023-12-20T00:02:17;0.80;99.90
40123;DHT22;25832;45.490;4.912;2023-12-20T00:04:43;0.80;99.90
40123;DHT22;25832;45.490;4.912;2023-12-20T00:07:08;0.90;99.90
40123;DHT22;25832;45.490;4.912;2023-12-20T00:09:34;0.90;99.90
40123;DHT22;25832;45.490;4.912;2023-12-20T00:11:59;1.00;99.90
40123;DHT22;25832;45.490;4.912;2023-12-20T00:14:25;1.00;99.90
40123;DHT22;25832;45.490;4.912;2023-12-20T00:16:51;1.00;99.90
40123;DHT22;25832;45.490;4.912;2023-12-20T00:19:16;1.10;99.90
40123;DHT22;25832;45.490;4.912;2023-12-20T00:21:42;1.10;99.90
40123;DHT22;25832;45.490;4.912;2023-12-20T00:24:08;1.10;99.90
40123;DHT22;25832;45.490;4.912;2023-12-20T00:26:33;1.10;99.90
40123;DHT22;25832;45.490;4.912;2023-12-20T00:28:59;1.20;99.90
40123;DHT22;25832;45.490;4.912;2023-12-20T00:31:25;1.20;99.90
40123;DHT22;25832;45.490;4.912;2023-12-20T00:33:51;1.20;99.90
40123;DHT22;25832;45.490;4.912;2023-12-20T00:36:16;1.30;99.90
40123;DHT22;25832;45.490;4.912;2023-12-20T00:38:42;1.30;99.90
40123;DHT22;25832;45.490;4.912;2023-12-20T00:41:07;1.30;99.90
40123;DHT22;25832;45.490;4.912;2023-12-20T00:43:33;1.40;99.90
40123;DHT22;25832;45.490;4.912;2023-12-20T00:45:59;1.40;99.90
40123;DHT22;25832;45.490;4.912;2023-12-20T00:48:25;1.40;99.90
40123;DHT22;25832;45.490;4.912;2023-12-20T00:50:52;1.40;99.90
40123;DHT22;25832;45.490;4.912;2023-12-20T00:53:18;1.50;99.90
40123;DHT22;25832;45.490;4.912;2023-12-20T00:55:44;1.50;99.90
40123;DHT22;25832;45.490;4.912;2023-12-20T00:58:10;1.60;99.90
40123;DHT22;25832;45.490;4.912;2023-12-20T01:00:36;1.60;99.90
40123;DHT22;25832;45.490;4.912;2023-12-20T01:03:01;1.60;99.90
40123;DHT22;25832;45.490;4.912;2023-12-20T01:05:27;1.70;99.90
40123;DHT22;25832;45.490;4.912;2023-12-20T01:07:52;1.70;99.90
40123;DHT22;25832;45.490;4.912;2023-12-20T01:10:18;1.80;99.90
40123;DHT22;25832;45.490;4.912;2023-12-20T01:12:44;1.90;99.90
40123;DHT22;25832;45.490;4.912;2023-12-20T01:15:10;2.00;99.90
40123;DHT22;25832;45.490;4.912;2023-12-20T01:17:35;2.00;99.90
40123;DHT22;25832;45.490;4.912;2023-12-20T01:20:01;2.00;99.90
40123;DHT22;25832;45.490;4.912;2023-12-20T01:22:27;2.00;99.90
40123;DHT22;25832;45.490;4.912;2023-12-20T01:24:53;2.00;99.90
40123;DHT22;25832;45.490;4.912;2023-12-20T01:27:19;2.00;99.90
40123;DHT22;25832;45.490;4.912;2023-12-20T01:29:44;2.00;99.90
40123;DHT22;25832;45.490;4.912;2023-12-20T01:32:10;2.00;99.90
40123;DHT22;25832;45.490;4.912;2023-12-20T01:34:36;2.10;99.90
40123;DHT22;25832;45.490;4.912;2023-12-20T01:37:01;2.10;99.90
40123;DHT22;25832;45.490;4.912;2023-12-20T01:39:28;2.10;99.90
40123;DHT22;25832;45.490;4.912;2023-12-20T01:41:53;2.10;99.90
40123;DHT22;25832;45.490;4.912;2023-12-20T01:44:19;2.20;99.90
40123;DHT22;25832;45.490;4.912;2023-12-20T01:46:46;2.20;99.90
40123;DHT22;25832;45.490;4.912;2023-12-20T01:49:12;2.20;99.90
40123;DHT22;25832;45.490;4.912;2023-12-20T01:51:38;2.20;99.90
40123;DHT22;25832;45.490;4.912;2023-12-20T01:54:04;2.30;99.90
40123;DHT22;25832;45.490;4.912;2023-12-20T01:56:31;2.30;99.90
40123;DHT22;25832;45.490;4.912;2023-12-20T01:58:58;2.40;99.90
40123;DHT22;25832;45.490;4.912;2023-12-20T02:01:24;2.40;99.90
40123;DHT22;25832;45.490;4.912;2023-12-20T02:03:50;2.30;99.90
40123;DHT22;25832;45.490;4.912;2023-12-20T02:06:18;2.30;99.90
40123;DHT22;25832;45.490;4.912;2023-12-20T02:08:45;2.30;99.90
40123;DHT22;25832;45.490;4.912;2023-12-20T02:11:11;2.40;99.90
40123;DHT22;25832;45.490;4.912;2023-12-20T02:13:36;2.40;99.90
40123;DHT22;25832;45.490;4.912;2023-12-20T02:16:02;2.30;99.90
40123;DHT22;25832;45.490;4.912;2023-12-20T02:18:28;2.30;99.90
40123;DHT22;25832;45.490;4.912;2023-12-20T02:20:54;2.30;99.90
40123;DHT22;25832;45.490;4.912;2023-12-20T02:23:20;2.30;99.90
40123;DHT22;25832;45.490;4.912;2023-12-20T02:25:46;2.50;99.90
40123;DHT22;25832;45.490;4.912;2023-12-20T02:28:11;2.40;99.90
40123;DHT22;25832;45.490;4.912;2023-12-20T02:30:37;2.50;99.90
40123;DHT22;25832;45.490;4.912;2023-12-20T02:33:04;2.50;99.90
40123;DHT22;25832;45.490;4.912;2023-12-20T02:35:33;2.50;99.90
40123;DHT22;25832;45.490;4.912;2023-12-20T02:37:58;2.60;99.90
40123;DHT22;25832;45.490;4.912;2023-12-20T02:40:24;2.60;99.90
40123;DHT22;25832;45.490;4.912;2023-12-20T02:42:49;2.70;99.90
40123;DHT22;25832;45.490;4.912;2023-12-20T02:45:15;2.70;99.90
40123;DHT22;25832;45.490;4.912;2023-12-20T02:47:40;2.70;99.90
40123;DHT22;25832;45.490;4.912;2023-12-20T02:50:06;2.70;99.90
40123;DHT22;25832;45.490;4.912;2023-12-20T02:52:32;2.70;99.90
40123;DHT22;25832;45.490;4.912;2023-12-20T02:54:58;2.80;99.90
40123;DHT22;25832;45.490;4.912;2023-12-20T02:57:23;2.80;99.90
40123;DHT22;25832;45.490;4.912;2023-12-20T02:59:49;2.90;99.90
40123;DHT22;25832;45.490;4.912;2023-12-20T03:02:14;2.90;99.90
40123;DHT22;25832;45.490;4.912;2023-12-20T03:04:40;2.90;99.90
40123;DHT22;25832;45.490;4.912;2023-12-20T03:07:06;2.90;99.90
40123;DHT22;25832;45.490;4.912;2023-12-20T03:09:31;2.90;99.90
40123;DHT22;25832;45.490;4.912;2023-12-20T03:11:57;2.90;99.90
40123;DHT22;25832;45.490;4.912;2023-12-20T03:14:23;2.90;99.90
40123;DHT22;25832;45.490;4.912;2023-12-20T03:16:51;2.90;99.90
40123;DHT22;25832;45.490;4.912;2023-12-20T03:19:18;2.90;99.90
40123;DHT22;25832;45.490;4.912;2023-12-20T03:21:44;2.90;99.90
40123;DHT22;25832;45.490;4.912;2023-12-20T03:24:10;3.00;99.90
40123;DHT22;25832;45.490;4.912;2023-12-20T03:26:36;2.90;99.90
40123;DHT22;25832;45.490;4.912;2023-12-20T03:29:01;2.90;99.90
40123;DHT22;25832;45.490;4.912;2023-12-20T03:31:27;2.80;99.90
40123;DHT22;25832;45.490;4.912;2023-12-20T03:33:52;2.80;99.90
40123;DHT22;25832;45.490;4.912;2023-12-20T03:36:19;2.80;99.90
40123;DHT22;25832;45.490;4.912;2023-12-20T03:38:45;2.80;99.90
40123;DHT22;25832;45.490;4.912;2023-12-20T03:41:11;2.80;99.90
40123;DHT22;25832;45.490;4.912;2023-12-20T03:43:37;2.80;99.90
40123;DHT22;25832;45.490;4.912;2023-12-20T03:46:03;2.80;99.90
40123;DHT22;25832;45.490;4.912;2023-12-20T03:48:30;2.90;99.90
40123;DHT22;25832;45.490;4.912;2023-12-20T03:50:57;2.90;99.90
40123;DHT22;25832;45.490;4.912;2023-12-20T03:53:22;2.90;99.90
40123;DHT22;25832;45.490;4.912;2023-12-20T03:55:48;2.90;99.90
40123;DHT22;25832;45.490;4.912;2023-12-20T03:58:14;2.90;99.90
40123;DHT22;25832;45.490;4.912;2023-12-20T04:00:39;3.00;99.90
40123;DHT22;25832;45.490;4.912;2023-12-20T04:03:05;2.90;99.90
40123;DHT22;25832;45.490;4.912;2023-12-20T04:05:30;3.00;99.90
40123;DHT22;25832;45.490;4.912;2023-12-20T04:07:56;3.00;99.90
40123;DHT22;25832;45.490;4.912;2023-12-20T04:10:22;3.00;99.90
40123;DHT22;25832;45.490;4.912;2023-12-20T04:12:47;3.00;99.90
40123;DHT22;25832;45.490;4.912;2023-12-20T04:15:13;3.10;99.90
40123;DHT22;25832;45.490;4.912;2023-12-20T04:17:38;3.10;99.90
40123;DHT22;25832;45.490;4.912;2023-12-20T04:20:05;3.10;99.90
40123;DHT22;25832;45.490;4.912;2023-12-20T04:22:31;3.20;99.90
40123;DHT22;25832;45.490;4.912;2023-12-20T04:24:56;3.20;99.90
40123;DHT22;25832;45.490;4.912;2023-12-20T04:27:22;3.20;99.90
40123;DHT22;25832;45.490;4.912;2023-12-20T04:29:47;3.20;99.90
40123;DHT22;25832;45.490;4.912;2023-12-20T04:32:13;3.30;99.90
40123;DHT22;25832;45.490;4.912;2023-12-20T04:34:39;3.30;99.90
40123;DHT22;25832;45.490;4.912;2023-12-20T04:37:04;3.30;99.90
40123;DHT22;25832;45.490;4.912;2023-12-20T04:39:30;3.30;99.90
40123;DHT22;25832;45.490;4.912;2023-12-20T04:41:55;3.30;99.90
40123;DHT22;25832;45.490;4.912;2023-12-20T04:44:21;3.40;99.90
40123;DHT22;25832;45.490;4.912;2023-12-20T04:46:47;3.50;99.90
40123;DHT22;25832;45.490;4.912;2023-12-20T04:49:12;3.50;99.90
40123;DHT22;25832;45.490;4.912;2023-12-20T04:51:38;3.50;99.90
40123;DHT22;25832;45.490;4.912;2023-12-20T04:54:04;3.50;99.90
40123;DHT22;25832;45.490;4.912;2023-12-20T04:56:29;3.40;99.90
40123;DHT22;25832;45.490;4.912;2023-12-20T04:58:55;3.50;99.90
40123;DHT22;25832;45.490;4.912;2023-12-20T05:01:20;3.50;99.90
40123;DHT22;25832;45.490;4.912;2023-12-20T05:03:47;3.50;99.90
40123;DHT22;25832;45.490;4.912;2023-12-20T05:06:12;3.40;99.90
40123;DHT22;25832;45.490;4.912;2023-12-20T05:08:38;3.40;99.90
40123;DHT22;25832;45.490;4.912;2023-12-20T05:11:04;3.30;99.90
40123;DHT22;25832;45.490;4.912;2023-12-20T05:13:30;3.20;99.90
40123;DHT22;25832;45.490;4.912;2023-12-20T05:15:55;3.10;99.90
40123;DHT22;25832;45.490;4.912;2023-12-20T05:18:21;3.00;99.90
40123;DHT22;25832;45.490;4.912;2023-12-20T05:20:47;2.90;99.90
40123;DHT22;25832;45.490;4.912;2023-12-20T05:23:13;2.80;99.90
40123;DHT22;25832;45.490;4.912;2023-12-20T05:25:39;2.80;99.90
40123;DHT22;25832;45.490;4.912;2023-12-20T05:28:05;2.80;99.90
40123;DHT22;25832;45.490;4.912;2023-12-20T05:30:31;2.80;99.90
40123;DHT22;25832;45.490;4.912;2023-12-20T05:32:56;2.80;99.90
40123;DHT22;25832;45.490;4.912;2023-12-20T05:35:22;2.70;99.90
40123;DHT22;25832;45.490;4.912;2023-12-20T05:37:49;2.80;99.90
40123;DHT22;25832;45.490;4.912;2023-12-20T05:40:15;2.70;99.90
40123;DHT22;25832;45.490;4.912;2023-12-20T05:42:40;2.70;99.90
40123;DHT22;25832;45.490;4.912;2023-12-20T05:45:06;2.70;99.90
40123;DHT22;25832;45.490;4.912;2023-12-20T05:47:32;2.70;99.90
40123;DHT22;25832;45.490;4.912;2023-12-20T05:49:58;2.70;99.90
40123;DHT22;25832;45.490;4.912;2023-12-20T05:52:24;2.70;99.90
40123;DHT22;25832;45.490;4.912;2023-12-20T05:54:50;2.70;99.90
40123;DHT22;25832;45.490;4.912;2023-12-20T05:57:15;2.70;99.90
40123;DHT22;25832;45.490;4.912;2023-12-20T05:59:41;2.70;99.90
40123;DHT22;25832;45.490;4.912;2023-12-20T06:02:06;2.70;99.90
40123;DHT22;25832;45.490;4.912;2023-12-20T06:04:32;2.70;99.90
40123;DHT22;25832;45.490;4.912;2023-12-20T06:06:58;2.80;99.90
40123;DHT22;25832;45.490;4.912;2023-12-20T06:09:26;2.80;99.90
40123;DHT22;25832;45.490;4.912;2023-12-20T06:11:52;2.80;99.90
40123;DHT22;25832;45.490;4.912;2023-12-20T06:14:17;2.80;99.90
40123;DHT22;25832;45.490;4.912;2023-12-20T06:16:43;2.80;99.90
40123;DHT22;25832;45.490;4.912;2023-12-20T06:19:09;2.80;99.90
40123;DHT22;25832;45.490;4.912;2023-12-20T06:21:34;2.80;99.90
40123;DHT22;25832;45.490;4.912;2023-12-20T06:24:00;2.80;99.90
40123;DHT22;25832;45.490;4.912;2023-12-20T06:26:25;2.80;99.90
40123;DHT22;25832;45.490;4.912;2023-12-20T06:28:51;2.80;99.90
40123;DHT22;25832;45.490;4.912;2023-12-20T06:31:17;2.80;99.90
40123;DHT22;25832;45.490;4.912;2023-12-20T06:33:43;2.80;99.90
40123;DHT22;25832;45.490;4.912;2023-12-20T06:36:12;2.80;99.90
40123;DHT22;25832;45.490;4.912;2023-12-20T06:38:41;2.80;99.90
40123;DHT22;25832;45.490;4.912;2023-12-20T06:41:07;2.90;99.90
40123;DHT22;25832;45.490;4.912;2023-12-20T06:43:33;2.90;99.90
40123;DHT22;25832;45.490;4.912;2023-12-20T06:46:00;2.90;99.90
40123;DHT22;25832;45.490;4.912;2023-12-20T06:48:26;2.90;99.90
40123;DHT22;25832;45.490;4.912;2023-12-20T06:50:51;2.90;99.90
40123;DHT22;25832;45.490;4.912;2023-12-20T06:53:18;2.90;99.90
40123;DHT22;25832;45.490;4.912;2023-12-20T06:55:43;2.90;99.90
40123;DHT22;25832;45.490;4.912;2023-12-20T06:58:09;2.90;99.90
40123;DHT22;25832;45.490;4.912;2023-12-20T07:00:35;2.90;99.90
40123;DHT22;25832;45.490;4.912;2023-12-20T07:03:00;3.00;99.90
40123;DHT22;25832;45.490;4.912;2023-12-20T07:05:26;2.90;99.90
40123;DHT22;25832;45.490;4.912;2023-12-20T07:07:52;2.90;99.90
40123;DHT22;25832;45.490;4.912;2023-12-20T07:10:18;3.00;99.90
40123;DHT22;25832;45.490;4.912;2023-12-20T07:12:43;3.00;99.90
40123;DHT22;25832;45.490;4.912;2023-12-20T07:15:09;3.10;99.90
40123;DHT22;25832;45.490;4.912;2023-12-20T07:17:35;3.10;99.90
40123;DHT22;25832;45.490;4.912;2023-12-20T07:20:01;3.10;99.90
40123;DHT22;25832;45.490;4.912;2023-12-20T07:22:30;3.10;99.90
40123;DHT22;25832;45.490;4.912;2023-12-20T07:24:57;3.10;99.90
40123;DHT22;25832;45.490;4.912;2023-12-20T07:27:23;3.10;99.90
40123;DHT22;25832;45.490;4.912;2023-12-20T07:29:49;3.10;99.90
40123;DHT22;25832;45.490;4.912;2023-12-20T07:32:14;3.10;99.90
40123;DHT22;25832;45.490;4.912;2023-12-20T07:34:40;3.10;99.90
40123;DHT22;25832;45.490;4.912;2023-12-20T07:37:05;3.10;99.90
40123;DHT22;25832;45.490;4.912;2023-12-20T07:39:31;3.20;99.90
40123;DHT22;25832;45.490;4.912;2023-12-20T07:41:57;3.20;99.90
40123;DHT22;25832;45.490;4.912;2023-12-20T07:44:22;3.20;99.90
40123;DHT22;25832;45.490;4.912;2023-12-20T07:46:48;3.20;99.90
40123;DHT22;25832;45.490;4.912;2023-12-20T07:49:14;3.20;99.90
40123;DHT22;25832;45.490;4.912;2023-12-20T07:51:39;3.20;99.90
40123;DHT22;25832;45.490;4.912;2023-12-20T07:54:05;3.20;99.90
40123;DHT22;25832;45.490;4.912;2023-12-20T07:56:31;3.20;99.90
40123;DHT22;25832;45.490;4.912;2023-12-20T07:58:56;3.20;99.90
40123;DHT22;25832;45.490;4.912;2023-12-20T08:01:22;3.20;99.90
40123;DHT22;25832;45.490;4.912;2023-12-20T08:03:49;3.20;99.90
40123;DHT22;25832;45.490;4.912;2023-12-20T08:06:14;3.20;99.90
40123;DHT22;25832;45.490;4.912;2023-12-20T08:08:40;3.20;99.90
40123;DHT22;25832;45.490;4.912;2023-12-20T08:11:06;3.20;99.90
40123;DHT22;25832;45.490;4.912;2023-12-20T08:13:31;3.20;99.90
40123;DHT22;25832;45.490;4.912;2023-12-20T08:15:57;3.20;99.90
40123;DHT22;25832;45.490;4.912;2023-12-20T08:18:22;3.20;99.90
40123;DHT22;25832;45.490;4.912;2023-12-20T08:20:48;3.30;99.90
40123;DHT22;25832;45.490;4.912;2023-12-20T08:23:15;3.30;99.90
40123;DHT22;25832;45.490;4.912;2023-12-20T08:25:40;3.40;99.90
40123;DHT22;25832;45.490;4.912;2023-12-20T08:28:06;3.40;99.90
40123;DHT22;25832;45.490;4.912;2023-12-20T08:30:32;3.40;99.90
40123;DHT22;25832;45.490;4.912;2023-12-20T08:33:00;3.50;99.90
40123;DHT22;25832;45.490;4.912;2023-12-20T08:35:26;3.50;99.90
40123;DHT22;25832;45.490;4.912;2023-12-20T08:37:51;3.60;99.90
40123;DHT22;25832;45.490;4.912;2023-12-20T08:40:17;3.70;99.90
40123;DHT22;25832;45.490;4.912;2023-12-20T08:42:42;3.70;99.90
40123;DHT22;25832;45.490;4.912;2023-12-20T08:45:08;3.80;99.90
40123;DHT22;25832;45.490;4.912;2023-12-20T08:47:34;3.80;99.90
40123;DHT22;25832;45.490;4.912;2023-12-20T08:49:59;3.90;99.90
40123;DHT22;25832;45.490;4.912;2023-12-20T08:52:27;4.00;99.90
40123;DHT22;25832;45.490;4.912;2023-12-20T08:54:53;4.00;99.90
40123;DHT22;25832;45.490;4.912;2023-12-20T08:57:22;4.00;99.90
40123;DHT22;25832;45.490;4.912;2023-12-20T08:59:50;4.10;99.90
40123;DHT22;25832;45.490;4.912;2023-12-20T09:02:16;4.20;99.90
40123;DHT22;25832;45.490;4.912;2023-12-20T09:04:42;4.20;99.90
40123;DHT22;25832;45.490;4.912;2023-12-20T09:07:24;4.30;99.90
40123;DHT22;25832;45.490;4.912;2023-12-20T09:09:51;4.40;99.90
40123;DHT22;25832;45.490;4.912;2023-12-20T09:12:20;4.40;99.90
40123;DHT22;25832;45.490;4.912;2023-12-20T09:14:47;4.50;99.90
40123;DHT22;25832;45.490;4.912;2023-12-20T09:17:13;4.50;99.90
40123;DHT22;25832;45.490;4.912;2023-12-20T09:19:39;4.50;99.90
40123;DHT22;25832;45.490;4.912;2023-12-20T09:22:05;4.60;99.90
40123;DHT22;25832;45.490;4.912;2023-12-20T09:24:30;4.60;99.90
40123;DHT22;25832;45.490;4.912;2023-12-20T09:26:56;4.60;99.90
40123;DHT22;25832;45.490;4.912;2023-12-20T09:29:22;4.70;99.90
40123;DHT22;25832;45.490;4.912;2023-12-20T09:31:47;4.80;99.90
40123;DHT22;25832;45.490;4.912;2023-12-20T09:34:15;4.90;99.90
40123;DHT22;25832;45.490;4.912;2023-12-20T09:36:41;4.90;99.90
40123;DHT22;25832;45.490;4.912;2023-12-20T09:39:16;5.00;99.90
40123;DHT22;25832;45.490;4.912;2023-12-20T09:42:02;4.90;99.90
40123;DHT22;25832;45.490;4.912;2023-12-20T09:44:29;5.00;99.90
40123;DHT22;25832;45.490;4.912;2023-12-20T09:46:55;5.00;99.90
40123;DHT22;25832;45.490;4.912;2023-12-20T09:49:22;5.00;99.90
40123;DHT22;25832;45.490;4.912;2023-12-20T09:51:50;5.00;99.90
40123;DHT22;25832;45.490;4.912;2023-12-20T09:54:21;5.10;99.90
40123;DHT22;25832;45.490;4.912;2023-12-20T09:56:47;5.10;99.90
40123;DHT22;25832;45.490;4.912;2023-12-20T09:59:13;5.20;99.90
40123;DHT22;25832;45.490;4.912;2023-12-20T10:01:42;5.20;99.90
40123;DHT22;25832;45.490;4.912;2023-12-20T10:04:10;5.20;99.90
40123;DHT22;25832;45.490;4.912;2023-12-20T10:06:46;5.30;99.90
40123;DHT22;25832;45.490;4.912;2023-12-20T10:09:13;5.30;99.90
40123;DHT22;25832;45.490;4.912;2023-12-20T10:11:39;5.30;99.90
40123;DHT22;25832;45.490;4.912;2023-12-20T10:14:06;5.40;99.90
40123;DHT22;25832;45.490;4.912;2023-12-20T10:16:32;5.40;99.90
40123;DHT22;25832;45.490;4.912;2023-12-20T10:18:59;5.50;99.90
40123;DHT22;25832;45.490;4.912;2023-12-20T10:21:25;5.50;99.90
40123;DHT22;25832;45.490;4.912;2023-12-20T10:23:55;5.60;99.90
40123;DHT22;25832;45.490;4.912;2023-12-20T10:26:26;5.70;99.90
40123;DHT22;25832;45.490;4.912;2023-12-20T10:28:55;5.70;99.90
40123;DHT22;25832;45.490;4.912;2023-12-20T10:31:32;5.80;99.90
40123;DHT22;25832;45.490;4.912;2023-12-20T10:33:59;5.80;99.90
40123;DHT22;25832;45.490;4.912;2023-12-20T10:36:26;5.90;99.90
40123;DHT22;25832;45.490;4.912;2023-12-20T10:38:54;5.90;99.90
40123;DHT22;25832;45.490;4.912;2023-12-20T10:41:29;5.90;99.90
40123;DHT22;25832;45.490;4.912;2023-12-20T10:44:02;6.00;99.90
40123;DHT22;25832;45.490;4.912;2023-12-20T10:46:29;6.00;99.90
40123;DHT22;25832;45.490;4.912;2023-12-20T10:48:56;6.00;99.90
40123;DHT22;25832;45.490;4.912;2023-12-20T10:51:23;6.00;99.90
40123;DHT22;25832;45.490;4.912;2023-12-20T10:53:50;6.10;99.90
40123;DHT22;25832;45.490;4.912;2023-12-20T10:56:19;6.20;99.90
40123;DHT22;25832;45.490;4.912;2023-12-20T10:58:46;6.10;99.90
40123;DHT22;25832;45.490;4.912;2023-12-20T11:01:13;6.20;99.90
40123;DHT22;25832;45.490;4.912;2023-12-20T11:03:50;6.10;99.90
40123;DHT22;25832;45.490;4.912;2023-12-20T11:08:53;6.20;99.90
40123;DHT22;25832;45.490;4.912;2023-12-20T11:11:30;6.20;99.90
40123;DHT22;25832;45.490;4.912;2023-12-20T11:14:05;6.20;99.90
40123;DHT22;25832;45.490;4.912;2023-12-20T11:16:32;6.30;99.90
40123;DHT22;25832;45.490;4.912;2023-12-20T11:19:04;6.30;99.90
40123;DHT22;25832;45.490;4.912;2023-12-20T11:21:29;6.40;99.90
40123;DHT22;25832;45.490;4.912;2023-12-20T11:23:55;6.40;99.90
40123;DHT22;25832;45.490;4.912;2023-12-20T11:26:28;6.50;99.90
40123;DHT22;25832;45.490;4.912;2023-12-20T11:29:01;6.60;99.90
40123;DHT22;25832;45.490;4.912;2023-12-20T11:31:40;6.60;99.90
40123;DHT22;25832;45.490;4.912;2023-12-20T11:34:17;6.60;99.90
40123;DHT22;25832;45.490;4.912;2023-12-20T11:36:43;6.60;99.90
40123;DHT22;25832;45.490;4.912;2023-12-20T11:39:08;6.60;99.90
40123;DHT22;25832;45.490;4.912;2023-12-20T11:41:36;6.60;99.90
40123;DHT22;25832;45.490;4.912;2023-12-20T11:44:04;6.50;99.90
40123;DHT22;25832;45.490;4.912;2023-12-20T11:46:31;6.50;99.90
40123;DHT22;25832;45.490;4.912;2023-12-20T11:48:57;6.50;99.90
40123;DHT22;25832;45.490;4.912;2023-12-20T11:51:22;6.40;99.90
40123;DHT22;25832;45.490;4.912;2023-12-20T11:53:51;6.40;99.90
40123;DHT22;25832;45.490;4.912;2023-12-20T11:56:18;6.40;99.90
40123;DHT22;25832;45.490;4.912;2023-12-20T11:58:44;6.30;99.90
40123;DHT22;25832;45.490;4.912;2023-12-20T12:01:10;6.30;99.90
40123;DHT22;25832;45.490;4.912;2023-12-20T12:03:36;6.30;99.90
40123;DHT22;25832;45.490;4.912;2023-12-20T12:06:02;6.40;99.90
40123;DHT22;25832;45.490;4.912;2023-12-20T12:08:30;6.40;99.90
40123;DHT22;25832;45.490;4.912;2023-12-20T12:10:56;6.40;99.90
40123;DHT22;25832;45.490;4.912;2023-12-20T12:13:22;6.40;99.90
40123;DHT22;25832;45.490;4.912;2023-12-20T12:15:48;6.40;99.90
40123;DHT22;25832;45.490;4.912;2023-12-20T12:18:16;6.30;99.90
40123;DHT22;25832;45.490;4.912;2023-12-20T12:20:42;6.40;99.90
40123;DHT22;25832;45.490;4.912;2023-12-20T12:23:07;6.30;99.90
40123;DHT22;25832;45.490;4.912;2023-12-20T12:25:37;6.40;99.90
40123;DHT22;25832;45.490;4.912;2023-12-20T12:28:02;6.40;99.90
40123;DHT22;25832;45.490;4.912;2023-12-20T12:30:28;6.30;99.90
40123;DHT22;25832;45.490;4.912;2023-12-20T12:32:56;6.40;99.90
40123;DHT22;25832;45.490;4.912;2023-12-20T12:35:22;6.30;99.90
40123;DHT22;25832;45.490;4.912;2023-12-20T12:37:47;6.40;99.90
40123;DHT22;25832;45.490;4.912;2023-12-20T12:40:14;6.40;99.90
40123;DHT22;25832;45.490;4.912;2023-12-20T12:42:41;6.40;99.90
40123;DHT22;25832;45.490;4.912;2023-12-20T12:45:07;6.40;99.90
40123;DHT22;25832;45.490;4.912;2023-12-20T12:47:34;6.40;99.90
40123;DHT22;25832;45.490;4.912;2023-12-20T12:50:00;6.40;99.90
40123;DHT22;25832;45.490;4.912;2023-12-20T12:52:25;6.50;99.90
40123;DHT22;25832;45.490;4.912;2023-12-20T12:54:52;6.40;99.90
40123;DHT22;25832;45.490;4.912;2023-12-20T12:57:18;6.50;99.90
40123;DHT22;25832;45.490;4.912;2023-12-20T12:59:44;6.40;99.90
40123;DHT22;25832;45.490;4.912;2023-12-20T13:02:12;6.40;99.90
40123;DHT22;25832;45.490;4.912;2023-12-20T13:04:39;6.40;99.90
40123;DHT22;25832;45.490;4.912;2023-12-20T13:07:04;6.30;99.90
40123;DHT22;25832;45.490;4.912;2023-12-20T13:09:30;6.30;99.90
40123;DHT22;25832;45.490;4.912;2023-12-20T13:11:57;6.30;99.90
40123;DHT22;25832;45.490;4.912;2023-12-20T13:14:22;6.30;99.90
40123;DHT22;25832;45.490;4.912;2023-12-20T13:16:48;6.20;99.90
40123;DHT22;25832;45.490;4.912;2023-12-20T13:19:13;6.20;99.90
40123;DHT22;25832;45.490;4.912;2023-12-20T13:21:39;6.20;99.90
40123;DHT22;25832;45.490;4.912;2023-12-20T13:24:05;6.20;99.90
40123;DHT22;25832;45.490;4.912;2023-12-20T13:26:31;6.20;99.90
40123;DHT22;25832;45.490;4.912;2023-12-20T13:28:57;6.20;99.90
40123;DHT22;25832;45.490;4.912;2023-12-20T13:31:22;6.20;99.90
40123;DHT22;25832;45.490;4.912;2023-12-20T13:33:48;6.20;99.90
40123;DHT22;25832;45.490;4.912;2023-12-20T13:36:13;6.20;99.90
40123;DHT22;25832;45.490;4.912;2023-12-20T13:38:39;6.30;99.90
40123;DHT22;25832;45.490;4.912;2023-12-20T13:41:05;6.30;99.90
40123;DHT22;25832;45.490;4.912;2023-12-20T13:43:31;6.30;99.90
40123;DHT22;25832;45.490;4.912;2023-12-20T13:46:01;6.30;99.90
40123;DHT22;25832;45.490;4.912;2023-12-20T13:48:26;6.30;99.90
40123;DHT22;25832;45.490;4.912;2023-12-20T13:50:52;6.40;99.90
40123;DHT22;25832;45.490;4.912;2023-12-20T13:53:18;6.40;99.90
40123;DHT22;25832;45.490;4.912;2023-12-20T13:55:44;6.50;99.90
40123;DHT22;25832;45.490;4.912;2023-12-20T13:58:10;6.60;99.90
40123;DHT22;25832;45.490;4.912;2023-12-20T14:00:36;6.70;99.90
40123;DHT22;25832;45.490;4.912;2023-12-20T14:03:03;6.80;99.90
40123;DHT22;25832;45.490;4.912;2023-12-20T14:05:29;6.80;99.90
40123;DHT22;25832;45.490;4.912;2023-12-20T14:07:55;6.80;99.90
40123;DHT22;25832;45.490;4.912;2023-12-20T14:10:23;6.80;99.90
40123;DHT22;25832;45.490;4.912;2023-12-20T14:12:52;6.80;99.90
40123;DHT22;25832;45.490;4.912;2023-12-20T14:15:17;6.90;99.90
40123;DHT22;25832;45.490;4.912;2023-12-20T14:17:43;6.80;99.90
40123;DHT22;25832;45.490;4.912;2023-12-20T14:20:09;6.80;99.90
40123;DHT22;25832;45.490;4.912;2023-12-20T14:22:36;6.80;99.90
40123;DHT22;25832;45.490;4.912;2023-12-20T14:25:04;6.80;99.90
40123;DHT22;25832;45.490;4.912;2023-12-20T14:27:30;6.70;99.90
40123;DHT22;25832;45.490;4.912;2023-12-20T14:29:55;6.70;99.90
40123;DHT22;25832;45.490;4.912;2023-12-20T14:32:21;6.70;99.90
40123;DHT22;25832;45.490;4.912;2023-12-20T14:34:47;6.70;99.90
40123;DHT22;25832;45.490;4.912;2023-12-20T14:37:13;6.80;99.90
40123;DHT22;25832;45.490;4.912;2023-12-20T14:39:39;6.80;99.90
40123;DHT22;25832;45.490;4.912;2023-12-20T14:42:07;6.80;99.90
40123;DHT22;25832;45.490;4.912;2023-12-20T14:44:37;6.80;99.90
40123;DHT22;25832;45.490;4.912;2023-12-20T14:47:03;6.80;99.90
40123;DHT22;25832;45.490;4.912;2023-12-20T14:49:30;6.70;99.90
40123;DHT22;25832;45.490;4.912;2023-12-20T14:51:55;6.60;99.90
40123;DHT22;25832;45.490;4.912;2023-12-20T14:54:21;6.60;99.90
40123;DHT22;25832;45.490;4.912;2023-12-20T14:56:47;6.60;99.90
40123;DHT22;25832;45.490;4.912;2023-12-20T14:59:13;6.60;99.90
40123;DHT22;25832;45.490;4.912;2023-12-20T15:01:39;6.50;99.90
40123;DHT22;25832;45.490;4.912;2023-12-20T15:04:08;6.50;99.90
40123;DHT22;25832;45.490;4.912;2023-12-20T15:06:34;6.40;99.90
40123;DHT22;25832;45.490;4.912;2023-12-20T15:09:00;6.40;99.90
40123;DHT22;25832;45.490;4.912;2023-12-20T15:11:26;6.40;99.90
40123;DHT22;25832;45.490;4.912;2023-12-20T15:13:52;6.40;99.90
40123;DHT22;25832;45.490;4.912;2023-12-20T15:16:22;6.30;99.90
40123;DHT22;25832;45.490;4.912;2023-12-20T15:18:48;6.30;99.90
40123;DHT22;25832;45.490;4.912;2023-12-20T15:21:15;6.30;99.90
40123;DHT22;25832;45.490;4.912;2023-12-20T15:23:41;6.30;99.90
40123;DHT22;25832;45.490;4.912;2023-12-20T15:26:20;6.30;99.90
40123;DHT22;25832;45.490;4.912;2023-12-20T15:28:46;6.20;99.90
40123;DHT22;25832;45.490;4.912;2023-12-20T15:31:12;6.10;99.90
40123;DHT22;25832;45.490;4.912;2023-12-20T15:33:39;6.10;99.90
40123;DHT22;25832;45.490;4.912;2023-12-20T15:36:05;6.10;99.90
40123;DHT22;25832;45.490;4.912;2023-12-20T15:38:31;6.10;99.90
40123;DHT22;25832;45.490;4.912;2023-12-20T15:40:56;6.10;99.90
40123;DHT22;25832;45.490;4.912;2023-12-20T15:43:22;6.10;99.90